Time;durP1;ratioP1;P1;durP2;ratioP2;P2;SDS_P1;SDS_P2;PMS_P1;PMS_P2;Temp;Humidity;BMP_temperature;BMP_pressure;BME280_temperature;BME280_humidity;BME280_pressure;Samples;Min_cycle;Max_cycle;Signal;HPM_P1;HPM_P2
2022/04/04 00:01:29;;;;;;;2.50;2.17;;;;;;;9.76;44.44;101430.36;1692896;84;21516;-64
2022/04/04 00:03:56;;;;;;;2.55;2.35;;;;;;;9.75;44.60;101431.22;1699283;84;21129;-64
2022/04/04 00:06:28;;;;;;;2.40;2.20;;;;;;;9.72;44.62;101431.69;1706021;84;21519;-64
2022/04/04 00:08:54;;;;;;;2.17;2.08;;;;;;;9.69;44.76;101432.56;1698219;84;21110;-64
2022/04/04 00:11:21;;;;;;;2.50;2.30;;;;;;;9.67;44.71;101438.22;1710910;84;21107;-65
2022/04/04 00:13:49;;;;;;;3.20;2.87;;;;;;;9.64;44.68;101438.22;1714328;83;21078;-65
2022/04/04 00:16:16;;;;;;;2.72;2.50;;;;;;;9.61;44.90;101447.36;1713262;83;21023;-66
2022/04/04 00:18:45;;;;;;;2.50;2.30;;;;;;;9.61;44.82;101446.05;1692120;84;21072;-65
2022/04/04 00:21:13;;;;;;;2.52;2.27;;;;;;;9.61;44.63;101461.64;1702069;84;21879;-65
2022/04/04 00:23:40;;;;;;;2.42;2.22;;;;;;;9.60;44.46;101461.66;1693924;84;21063;-65
2022/04/04 00:26:09;;;;;;;3.15;2.37;;;;;;;9.59;44.46;101464.69;1703301;84;21030;-65
2022/04/04 00:28:35;;;;;;;3.22;2.35;;;;;;;9.58;44.44;101465.55;1694210;84;21519;-64
2022/04/04 00:31:04;;;;;;;3.20;2.50;;;;;;;9.58;44.67;101466.84;1712152;84;21066;-64
2022/04/04 00:33:31;;;;;;;3.40;2.92;;;;;;;9.58;44.89;101477.23;1696357;84;21573;-65
2022/04/04 00:35:59;;;;;;;2.80;2.52;;;;;;;9.55;45.02;101466.88;1692525;84;21011;-65
2022/04/04 00:38:26;;;;;;;2.62;2.42;;;;;;;9.54;45.16;101470.34;1707782;84;21500;-65
2022/04/04 00:40:53;;;;;;;3.27;2.98;;;;;;;9.53;45.19;101473.83;1698483;84;21018;-65
2022/04/04 00:43:20;;;;;;;4.12;2.65;;;;;;;9.52;44.85;101477.28;1709250;84;21019;-65
2022/04/04 00:45:47;;;;;;;2.42;2.00;;;;;;;9.49;44.68;101479.91;1694740;84;21004;-65
2022/04/04 00:48:14;;;;;;;2.92;2.70;;;;;;;9.47;44.78;101482.95;1704796;84;21101;-65
2022/04/04 00:50:42;;;;;;;3.77;2.75;;;;;;;9.43;44.56;101487.74;1699213;84;21023;-65
2022/04/04 00:53:11;;;;;;;2.65;2.42;;;;;;;9.40;44.62;101492.94;1700783;83;21003;-65
2022/04/04 00:55:39;;;;;;;3.10;2.85;;;;;;;9.39;44.40;101491.23;1753517;82;21034;-65
2022/04/04 00:58:06;;;;;;;2.75;2.27;;;;;;;9.37;44.25;101493.40;1753450;82;21031;-65
2022/04/04 01:00:33;;;;;;;3.12;2.75;;;;;;;9.36;44.30;101493.83;1753794;82;21042;-65
2022/04/04 01:03:00;;;;;;;2.80;2.60;;;;;;;9.36;44.38;101499.45;1753463;82;21071;-65
2022/04/04 01:05:28;;;;;;;3.20;2.72;;;;;;;9.35;44.35;101499.04;1753705;82;21499;-65
2022/04/04 01:07:56;;;;;;;2.70;2.50;;;;;;;9.34;44.27;101509.86;1754111;82;21614;-64
2022/04/04 01:10:24;;;;;;;2.92;2.65;;;;;;;9.35;44.25;101518.52;1753794;82;21058;-65
2022/04/04 01:12:54;;;;;;;3.00;2.70;;;;;;;9.34;44.38;101518.94;1753244;82;21007;-65
2022/04/04 01:15:23;;;;;;;2.95;2.62;;;;;;;9.34;44.44;101526.73;1754727;82;21011;-65
2022/04/04 01:17:52;;;;;;;2.87;2.60;;;;;;;9.32;44.56;101521.98;1752154;82;21031;-65
2022/04/04 01:20:19;;;;;;;3.27;2.90;;;;;;;9.30;44.69;101530.22;1752995;82;20999;-65
2022/04/04 01:22:49;;;;;;;2.85;2.60;;;;;;;9.28;44.60;101531.95;1753683;82;21519;-65
2022/04/04 01:25:26;;;;;;;3.05;2.70;;;;;;;9.25;44.61;101529.39;1753542;82;20987;-65
2022/04/04 01:27:55;;;;;;;3.58;3.27;;;;;;;9.19;44.95;101534.58;1754179;82;21038;-65
2022/04/04 01:30:26;;;;;;;3.40;3.00;;;;;;;9.15;45.15;101547.14;1753793;82;21054;-65
2022/04/04 01:32:54;;;;;;;3.50;3.15;;;;;;;9.13;45.08;101548.88;1753415;82;21055;-65
2022/04/04 01:35:22;;;;;;;3.60;3.30;;;;;;;9.11;45.15;101561.47;1753631;82;21494;-65
2022/04/04 01:37:49;;;;;;;3.55;3.20;;;;;;;9.08;45.25;101566.22;1753889;82;21062;-65
2022/04/04 01:40:16;;;;;;;3.35;3.05;;;;;;;9.07;45.31;101577.46;1753876;82;21038;-66
2022/04/04 01:42:49;;;;;;;7.25;3.08;;;;;;;9.05;45.42;101576.60;1753882;82;21035;-65
2022/04/04 01:45:16;;;;;;;4.47;3.55;;;;;;;9.05;45.59;101579.20;1750738;82;21519;-65
2022/04/04 01:47:45;;;;;;;3.60;3.30;;;;;;;9.08;45.49;101577.03;1753707;82;21015;-65
2022/04/04 01:50:13;;;;;;;3.85;3.40;;;;;;;9.06;45.45;101580.94;1740541;82;20999;-65
2022/04/04 01:52:40;;;;;;;4.45;2.83;;;;;;;9.06;45.44;101580.07;1753059;82;21038;-65
2022/04/04 01:55:08;;;;;;;3.42;3.12;;;;;;;9.06;45.40;101588.73;1749081;81;21068;-66
2022/04/04 01:57:35;;;;;;;3.12;2.83;;;;;;;9.03;45.52;101587.42;1747591;82;21084;-66
2022/04/04 02:00:04;;;;;;;5.10;3.05;;;;;;;9.00;45.60;101591.34;1747905;82;21519;-65
2022/04/04 02:02:34;;;;;;;;;;;;;;;8.97;45.70;101590.03;1746531;82;20993;-64
2022/04/04 02:05:01;;;;;;;4.10;3.47;;;;;;;8.95;45.82;101591.77;1727329;82;20087;-67
2022/04/04 02:07:28;;;;;;;5.17;3.65;;;;;;;8.93;45.87;101592.20;1748100;82;21028;-65
2022/04/04 02:09:58;;;;;;;4.85;3.75;;;;;;;8.91;45.95;101600.43;1747540;82;21091;-64
2022/04/04 02:12:25;;;;;;;4.60;4.15;;;;;;;8.88;45.97;101600.45;1747462;82;21516;-64
2022/04/04 02:14:52;;;;;;;4.75;3.75;;;;;;;8.85;46.02;101597.84;1747891;82;21000;-64
2022/04/04 02:17:19;;;;;;;4.10;3.65;;;;;;;8.82;46.03;101600.00;1747553;80;21019;-64
2022/04/04 02:19:47;;;;;;;4.17;3.65;;;;;;;8.78;46.13;101606.48;1747681;82;21018;-64
2022/04/04 02:22:15;;;;;;;4.80;3.70;;;;;;;8.75;46.24;101610.41;1747715;82;21044;-65
2022/04/04 02:24:43;;;;;;;3.33;3.02;;;;;;;8.74;46.26;101619.03;1747623;81;21519;-65
2022/04/04 02:27:10;;;;;;;3.85;3.55;;;;;;;8.72;46.33;101619.05;1747982;82;21595;-66
2022/04/04 02:29:38;;;;;;;3.85;3.55;;;;;;;8.71;46.37;101616.46;1747428;82;21520;-65
2022/04/04 02:32:06;;;;;;;3.72;3.37;;;;;;;8.70;46.35;101623.80;1747769;82;21028;-66
2022/04/04 02:34:33;;;;;;;4.37;3.62;;;;;;;8.67;46.31;101624.69;1745873;82;21024;-66
2022/04/04 02:37:00;;;;;;;4.40;4.00;;;;;;;8.65;46.31;101625.55;1747748;82;21023;-65
2022/04/04 02:39:27;;;;;;;3.87;3.47;;;;;;;8.59;46.33;101626.42;1747479;82;21111;-66
2022/04/04 02:41:55;;;;;;;4.12;3.72;;;;;;;8.57;46.42;101632.47;1747662;82;21088;-66
2022/04/04 02:44:22;;;;;;;4.58;4.10;;;;;;;8.53;46.48;101633.33;1747771;82;21530;-65
2022/04/04 02:46:49;;;;;;;3.83;3.37;;;;;;;8.47;46.63;101630.73;1747564;82;21058;-66
2022/04/04 02:49:17;;;;;;;4.78;3.85;;;;;;;8.43;46.66;101634.19;1747716;82;21511;-65
2022/04/04 02:51:44;;;;;;;3.80;3.50;;;;;;;8.40;46.56;101643.25;1747504;82;21550;-65
2022/04/04 02:54:11;;;;;;;4.08;3.47;;;;;;;8.36;46.54;101648.88;1748212;81;21085;-65
2022/04/04 02:56:41;;;;;;;4.40;4.00;;;;;;;8.32;46.56;101656.64;1709741;84;21036;-66
2022/04/04 02:59:08;;;;;;;5.37;4.50;;;;;;;8.29;46.54;101655.32;1712192;83;21062;-66
2022/04/04 03:01:35;;;;;;;7.83;4.65;;;;;;;8.27;46.61;101663.53;1689397;84;21074;-67
2022/04/04 03:04:02;;;;;;;7.28;4.65;;;;;;;8.19;46.65;101666.95;1703889;84;21561;-65
2022/04/04 03:06:30;;;;;;;7.20;4.35;;;;;;;8.14;46.60;101659.58;1692982;84;21527;-66
2022/04/04 03:08:58;;;;;;;7.00;5.30;;;;;;;8.11;46.55;101664.78;1690352;84;21042;-66
2022/04/04 03:11:27;;;;;;;6.58;4.40;;;;;;;8.06;46.66;101665.18;1693594;84;21074;-67
2022/04/04 03:13:54;;;;;;;7.53;5.08;;;;;;;7.99;46.78;101666.04;1696882;84;21043;-66
2022/04/04 03:16:21;;;;;;;6.80;5.10;;;;;;;7.96;46.94;101668.61;1711338;84;21499;-66
2022/04/04 03:18:48;;;;;;;5.70;4.87;;;;;;;7.93;47.05;101672.47;1699248;84;21035;-66
2022/04/04 03:21:17;;;;;;;4.70;4.20;;;;;;;7.91;47.14;101669.46;1700980;84;21047;-66
2022/04/04 03:23:44;;;;;;;6.12;4.00;;;;;;;7.88;47.15;101671.60;1694361;84;21047;-65
2022/04/04 03:26:11;;;;;;;5.85;4.33;;;;;;;7.86;47.18;101678.93;1703289;84;21011;-65
2022/04/04 03:28:38;;;;;;;3.98;3.58;;;;;;;7.84;47.17;101684.11;1691307;84;21576;-64
2022/04/04 03:31:06;;;;;;;4.50;4.10;;;;;;;7.82;47.20;101676.77;1696668;84;21038;-65
2022/04/04 03:33:34;;;;;;;4.65;4.20;;;;;;;7.81;47.12;101686.67;1700631;84;21026;-65
2022/04/04 03:36:02;;;;;;;5.97;4.45;;;;;;;7.78;47.20;101689.27;1692135;84;21090;-65
2022/04/04 03:38:30;;;;;;;4.33;3.92;;;;;;;7.76;47.24;101696.59;1707482;84;21535;-65
2022/04/04 03:40:57;;;;;;;4.28;3.77;;;;;;;7.74;47.29;101699.19;1699011;84;21089;-65
2022/04/04 03:43:25;;;;;;;4.67;4.00;;;;;;;7.70;47.41;101698.73;1708661;84;21519;-66
2022/04/04 03:45:52;;;;;;;4.55;4.15;;;;;;;7.68;47.46;101700.45;1695463;84;21095;-65
2022/04/04 03:48:20;;;;;;;4.12;3.72;;;;;;;7.67;47.52;101701.30;1685895;84;21065;-65
2022/04/04 03:50:47;;;;;;;5.10;3.83;;;;;;;7.68;47.51;101705.63;1699239;84;21086;-66
2022/04/04 03:53:14;;;;;;;4.35;3.92;;;;;;;7.68;47.43;101713.41;1699973;84;21532;-66
2022/04/04 03:55:43;;;;;;;4.58;4.05;;;;;;;7.67;47.44;101710.36;1701074;83;21078;-66
2022/04/04 03:58:12;;;;;;;4.50;3.77;;;;;;;7.67;47.48;101714.25;1765931;80;21026;-66
2022/04/04 04:00:40;;;;;;;4.95;3.52;;;;;;;7.65;47.38;101715.97;1775665;80;21030;-66
2022/04/04 04:03:08;;;;;;;4.30;3.77;;;;;;;7.62;47.38;101719.85;1768621;80;21026;-66
2022/04/04 04:05:37;;;;;;;7.35;4.10;;;;;;;7.60;47.49;101722.86;1769190;80;21049;-66
2022/04/04 04:08:06;;;;;;;3.92;3.60;;;;;;;7.57;47.54;101734.48;1775792;80;21054;-66
2022/04/04 04:10:34;;;;;;;4.80;4.28;;;;;;;7.54;47.74;101731.89;1775744;80;21014;-66
2022/04/04 04:13:05;;;;;;;5.58;4.25;;;;;;;7.54;47.79;101731.89;1768710;80;21055;-66
2022/04/04 04:15:32;;;;;;;4.33;3.92;;;;;;;7.53;47.84;101744.39;1757211;80;21046;-66
2022/04/04 04:18:00;;;;;;;5.53;3.85;;;;;;;7.55;47.92;101749.56;1766663;80;21046;-67
2022/04/04 04:20:33;;;;;;;5.40;4.00;;;;;;;7.55;48.05;101747.85;1773971;80;21093;-66
2022/04/04 04:23:03;;;;;;;5.92;4.17;;;;;;;7.59;48.06;101756.08;1771633;80;21015;-67
2022/04/04 04:25:31;;;;;;;5.50;3.98;;;;;;;7.62;48.07;101757.41;1757129;80;21002;-66
2022/04/04 04:28:00;;;;;;;4.58;4.17;;;;;;;7.65;48.07;101757.41;1769646;80;21057;-66
2022/04/04 04:30:30;;;;;;;5.92;4.12;;;;;;;7.68;47.89;101753.56;1771793;80;20990;-66
2022/04/04 04:32:58;;;;;;;6.90;4.55;;;;;;;7.71;47.71;101762.63;1769009;80;21002;-66
2022/04/04 04:35:27;;;;;;;6.25;5.00;;;;;;;7.73;47.51;101763.50;1767014;80;21053;-66
2022/04/04 04:37:54;;;;;;;5.20;4.62;;;;;;;7.73;47.27;101758.31;1765251;80;21023;-66
2022/04/04 04:40:21;;;;;;;6.25;4.85;;;;;;;7.72;47.32;101765.67;1768117;80;21542;-66
2022/04/04 04:42:50;;;;;;;4.95;4.35;;;;;;;7.73;47.38;101763.50;1766032;80;21097;-66
2022/04/04 04:45:17;;;;;;;5.40;4.20;;;;;;;7.77;47.46;101765.25;1768600;80;21058;-66
2022/04/04 04:47:45;;;;;;;5.00;4.08;;;;;;;7.79;47.31;101761.40;1743864;80;21500;-66
2022/04/04 04:50:14;;;;;;;6.15;4.30;;;;;;;7.80;47.15;101774.77;1753384;80;21038;-66
2022/04/04 04:52:42;;;;;;;4.75;4.17;;;;;;;7.80;47.02;101778.23;1766502;80;20994;-64
2022/04/04 04:55:10;;;;;;;5.95;4.40;;;;;;;7.83;47.06;101781.28;1755968;80;21086;-65
2022/04/04 04:57:38;;;;;;;5.05;3.90;;;;;;;7.89;46.85;101783.45;1710251;84;21067;-67
2022/04/04 05:00:10;;;;;;;9.70;5.05;;;;;;;7.93;46.77;101783.91;1695932;84;21035;-65
2022/04/04 05:02:38;;;;;;;5.50;4.30;;;;;;;7.98;46.70;101786.10;1695397;84;21012;-65
2022/04/04 05:05:06;;;;;;;5.03;4.53;;;;;;;8.04;46.36;101791.31;1709714;84;21048;-66
2022/04/04 05:07:35;;;;;;;5.10;4.17;;;;;;;8.07;46.20;101797.83;1700298;84;21038;-66
2022/04/04 05:10:02;;;;;;;5.30;4.78;;;;;;;8.12;46.02;101805.18;1695784;84;21055;-66
2022/04/04 05:12:29;;;;;;;5.25;4.75;;;;;;;8.15;45.87;101807.80;1710385;84;21028;-66
2022/04/04 05:14:57;;;;;;;4.42;4.03;;;;;;;8.17;45.64;101815.16;1714478;83;21030;-65
2022/04/04 05:17:24;;;;;;;5.58;4.47;;;;;;;8.18;45.53;101816.87;1677831;84;21539;-65
2022/04/04 05:19:51;;;;;;;5.80;4.22;;;;;;;8.21;45.48;101823.39;1702824;84;21094;-66
2022/04/04 05:22:19;;;;;;;4.33;3.92;;;;;;;8.23;45.42;101830.73;1701033;84;21094;-65
2022/04/04 05:24:47;;;;;;;5.28;4.78;;;;;;;8.28;45.37;101834.69;1694355;84;21512;-66
2022/04/04 05:27:16;;;;;;;5.20;4.17;;;;;;;8.30;44.96;101835.98;1705392;84;21590;-67
2022/04/04 05:29:45;;;;;;;4.62;4.03;;;;;;;8.31;44.89;101835.11;1717114;83;21046;-66
2022/04/04 05:32:12;;;;;;;5.40;4.35;;;;;;;8.33;44.69;101842.47;1696390;84;21487;-66
2022/04/04 05:34:40;;;;;;;6.37;4.83;;;;;;;8.34;44.60;101833.84;1696128;84;21089;-66
2022/04/04 05:37:07;;;;;;;6.72;4.85;;;;;;;8.34;44.65;101844.22;1684361;84;21035;-66
2022/04/04 05:39:34;;;;;;;4.70;3.90;;;;;;;8.33;44.54;101852.84;1708951;84;21078;-66
2022/04/04 05:42:02;;;;;;;4.62;4.12;;;;;;;8.33;44.59;101853.72;1714631;83;20988;-67
2022/04/04 05:44:29;;;;;;;5.15;4.65;;;;;;;8.33;44.41;101854.13;1713894;83;21007;-65
2022/04/04 05:46:56;;;;;;;5.50;4.60;;;;;;;8.32;44.42;101853.72;1693597;84;21098;-65
2022/04/04 05:49:23;;;;;;;4.95;4.45;;;;;;;8.34;44.34;101858.48;1696141;84;21026;-66
2022/04/04 05:51:51;;;;;;;4.97;4.47;;;;;;;8.40;44.75;101854.61;1692780;84;21082;-66
2022/04/04 05:54:18;;;;;;;5.25;4.67;;;;;;;8.55;44.64;101857.28;1710527;84;21079;-66
2022/04/04 05:56:46;;;;;;;4.40;4.00;;;;;;;8.75;44.34;101853.02;1745350;82;21554;-66
2022/04/04 05:59:13;;;;;;;5.00;3.98;;;;;;;9.03;43.99;101857.41;1784943;80;21042;-66
2022/04/04 06:01:41;;;;;;;4.80;4.40;;;;;;;9.35;42.74;101859.64;1785231;80;20987;-66
2022/04/04 06:04:07;;;;;;;5.42;4.17;;;;;;;9.66;42.47;101865.28;1780212;80;20999;-66
2022/04/04 06:06:34;;;;;;;4.50;3.80;;;;;;;10.05;41.34;101868.69;1784815;80;21022;-64
2022/04/04 06:09:01;;;;;;;4.15;3.62;;;;;;;10.47;40.65;101871.20;1785386;80;21034;-65
2022/04/04 06:11:29;;;;;;;4.17;3.72;;;;;;;10.92;39.93;101870.98;1784936;80;21039;-65
2022/04/04 06:13:57;;;;;;;4.85;3.75;;;;;;;11.46;39.18;101862.81;1782162;80;20995;-65
2022/04/04 06:16:25;;;;;;;4.87;4.03;;;;;;;12.04;38.23;101875.37;1782616;80;20991;-64
2022/04/04 06:18:54;;;;;;;4.65;4.15;;;;;;;12.52;36.32;101870.94;1784799;80;21475;-65
2022/04/04 06:21:22;;;;;;;5.12;3.80;;;;;;;12.76;35.80;101876.27;1784987;80;21050;-64
2022/04/04 06:23:49;;;;;;;4.15;3.67;;;;;;;12.96;35.46;101877.73;1778051;80;21026;-64
2022/04/04 06:26:16;;;;;;;4.05;3.47;;;;;;;13.21;34.51;101881.37;1784900;80;21058;-65
2022/04/04 06:28:43;;;;;;;4.58;3.80;;;;;;;13.41;34.15;101880.62;1785132;80;21080;-65
2022/04/04 06:31:10;;;;;;;5.53;3.72;;;;;;;13.53;33.29;101881.30;1784799;80;21519;-65
2022/04/04 06:33:39;;;;;;;5.10;3.70;;;;;;;13.49;33.01;101884.84;1784779;80;21511;-65
2022/04/04 06:36:06;;;;;;;3.95;3.55;;;;;;;13.53;33.32;101891.75;1764243;80;21045;-65
2022/04/04 06:38:35;;;;;;;5.03;3.30;;;;;;;13.59;32.74;101890.78;1784916;80;21050;-66
2022/04/04 06:41:01;;;;;;;4.28;3.60;;;;;;;13.58;33.01;101894.30;1784196;80;20998;-65
2022/04/04 06:43:28;;;;;;;4.00;3.60;;;;;;;13.60;33.01;101899.06;1784907;80;21023;-65
2022/04/04 06:45:56;;;;;;;3.77;3.37;;;;;;;13.69;33.14;101892.35;1785064;80;20979;-65
2022/04/04 06:48:23;;;;;;;3.65;3.33;;;;;;;13.89;32.57;101896.80;1784861;80;21081;-65
2022/04/04 06:50:50;;;;;;;3.50;3.20;;;;;;;14.07;32.41;101899.55;1784885;80;21022;-65
2022/04/04 06:53:21;;;;;;;3.65;3.30;;;;;;;14.19;32.13;101901.51;1784799;80;21094;-64
2022/04/04 06:55:46;;;;;;;4.33;3.30;;;;;;;14.23;31.25;101901.88;1758763;81;21054;-65
2022/04/04 06:58:14;;;;;;;3.70;3.40;;;;;;;14.11;30.88;101911.26;1763094;81;21010;-64
2022/04/04 07:00:41;;;;;;;4.08;3.02;;;;;;;13.95;31.04;101913.70;1761205;81;21074;-65
2022/04/04 07:03:08;;;;;;;3.75;3.17;;;;;;;13.91;31.09;101912.02;1762175;81;21473;-65
2022/04/04 07:05:37;;;;;;;3.65;3.25;;;;;;;13.96;31.20;101920.67;1738505;81;21444;-65
2022/04/04 07:08:06;;;;;;;3.35;3.05;;;;;;;14.04;30.87;101921.41;1760269;81;21050;-65
2022/04/04 07:10:34;;;;;;;4.25;2.77;;;;;;;14.04;29.74;101925.77;1763345;81;21530;-65
2022/04/04 07:13:02;;;;;;;3.55;3.25;;;;;;;13.95;30.03;101926.78;1761786;81;21015;-65
2022/04/04 07:15:29;;;;;;;3.67;3.20;;;;;;;14.07;30.33;101929.22;1761956;81;21491;-66
2022/04/04 07:17:56;;;;;;;4.17;2.95;;;;;;;14.22;28.97;101928.92;1761860;81;21015;-65
2022/04/04 07:20:23;;;;;;;4.87;3.50;;;;;;;14.32;28.19;101932.30;1762180;81;21030;-63
2022/04/04 07:22:50;;;;;;;4.10;3.27;;;;;;;14.30;28.10;101934.91;1763683;81;21023;-65
2022/04/04 07:25:18;;;;;;;3.52;3.22;;;;;;;14.38;28.00;101943.95;1763996;81;21042;-64
2022/04/04 07:27:46;;;;;;;3.55;3.10;;;;;;;14.41;28.01;101946.06;1763758;81;21030;-65
2022/04/04 07:30:18;;;;;;;3.50;3.20;;;;;;;14.52;27.98;101946.74;1755618;81;20998;-65
2022/04/04 07:32:46;;;;;;;;;;;;;;;14.71;28.17;101954.23;1765970;81;21074;-65
2022/04/04 07:35:12;;;;;;;2.80;2.60;;;;;;;14.86;27.61;101948.70;1763720;81;20101;-64
2022/04/04 07:37:41;;;;;;;3.50;3.20;;;;;;;14.91;27.51;101952.07;1764318;81;21027;-65
2022/04/04 07:42:45;;;;;;;3.92;3.60;;;;;;;14.76;27.50;101960.23;1694150;83;21550;-65
2022/04/04 07:45:16;;;;;;;3.70;3.40;;;;;;;14.62;27.75;101971.86;1695589;84;21479;-66
2022/04/04 07:47:43;;;;;;;3.35;3.00;;;;;;;14.48;27.78;101973.01;1695706;84;21078;-65
2022/04/04 07:50:12;;;;;;;3.10;2.80;;;;;;;14.34;27.88;101969.31;1692769;84;21562;-66
2022/04/04 07:52:40;;;;;;;3.33;2.98;;;;;;;14.22;28.07;101976.05;1695631;84;21026;-65
2022/04/04 07:55:09;;;;;;;4.30;2.85;;;;;;;14.12;28.02;101969.25;1695905;84;21150;-65
2022/04/04 07:57:38;;;;;;;3.47;3.17;;;;;;;14.05;27.89;101975.48;1690857;84;21069;-65
2022/04/04 08:00:07;;;;;;;3.50;3.20;;;;;;;13.98;28.03;101962.51;1686034;85;21074;-65
2022/04/04 08:02:34;;;;;;;3.50;3.08;;;;;;;13.88;27.69;101964.42;1686892;84;21076;-65
2022/04/04 08:05:02;;;;;;;3.50;3.20;;;;;;;13.80;27.72;101958.45;1688037;85;21023;-66
2022/04/04 08:07:29;;;;;;;3.27;2.98;;;;;;;13.71;27.78;101975.59;1685739;85;21075;-65
2022/04/04 08:09:58;;;;;;;4.60;3.37;;;;;;;13.60;27.50;101969.20;1690538;84;21062;-66
2022/04/04 08:12:29;;;;;;;3.92;3.47;;;;;;;13.53;27.74;101969.33;1688604;85;21094;-66
2022/04/04 08:14:56;;;;;;;4.33;3.35;;;;;;;13.52;27.30;101964.97;1690783;84;21090;-64
2022/04/04 08:17:23;;;;;;;4.40;3.30;;;;;;;13.48;27.67;101963.28;1689074;85;21066;-64
2022/04/04 08:19:50;;;;;;;4.03;3.45;;;;;;;13.45;28.08;101964.22;1689584;84;21094;-65
2022/04/04 08:22:18;;;;;;;5.00;3.10;;;;;;;13.46;27.70;101950.68;1688546;85;21181;-64
2022/04/04 08:24:46;;;;;;;3.40;3.10;;;;;;;13.37;27.63;101955.63;1688712;85;21002;-64
2022/04/04 08:27:13;;;;;;;3.70;3.30;;;;;;;13.29;27.62;101955.31;1688274;85;21015;-64
2022/04/04 08:29:40;;;;;;;3.35;3.05;;;;;;;13.24;27.63;101956.67;1687130;85;21531;-64
2022/04/04 08:32:08;;;;;;;4.35;3.40;;;;;;;13.25;27.86;101957.54;1687458;85;21136;-64
2022/04/04 08:34:36;;;;;;;3.20;2.90;;;;;;;13.29;28.12;101960.53;1683461;83;21518;-65
2022/04/04 08:37:04;;;;;;;5.30;3.33;;;;;;;13.35;28.16;101961.75;1689170;84;21039;-64
2022/04/04 08:39:31;;;;;;;3.87;3.20;;;;;;;13.40;27.73;101957.31;1728106;82;21011;-65
2022/04/04 08:41:57;;;;;;;4.33;3.30;;;;;;;13.44;27.54;101952.45;1753951;82;21023;-64
2022/04/04 08:44:24;;;;;;;3.62;3.20;;;;;;;13.48;27.68;101955.44;1753260;82;21042;-64
2022/04/04 08:46:52;;;;;;;3.67;3.15;;;;;;;13.53;27.66;101949.72;1753358;82;21026;-64
2022/04/04 08:49:18;;;;;;;4.53;3.45;;;;;;;13.53;27.56;101953.20;1753964;82;21031;-64
2022/04/04 08:51:48;;;;;;;4.08;2.95;;;;;;;13.55;27.85;101945.33;1753455;82;21073;-64
2022/04/04 08:54:16;;;;;;;3.58;3.27;;;;;;;13.57;27.45;101943.12;1731304;82;21021;-65
2022/04/04 08:56:44;;;;;;;3.60;3.17;;;;;;;13.59;27.60;101945.70;1751692;80;21055;-64
2022/04/04 08:59:11;;;;;;;5.08;3.27;;;;;;;13.59;28.14;101943.08;1708781;84;21075;-64
2022/04/04 09:01:38;;;;;;;4.47;3.45;;;;;;;13.67;28.36;101952.98;1714344;83;21038;-65
2022/04/04 09:04:10;;;;;;;3.75;3.12;;;;;;;13.74;27.65;101938.93;1714613;83;21042;-64
2022/04/04 09:06:53;;;;;;;3.15;2.67;;;;;;;13.81;28.08;101944.03;1694781;84;21036;-64
2022/04/04 09:09:26;;;;;;;3.22;2.92;;;;;;;13.87;27.41;101934.77;1713974;84;21054;-64
2022/04/04 09:12:13;;;;;;;3.42;3.05;;;;;;;13.95;27.13;101935.10;1703575;84;21097;-65
2022/04/04 09:14:53;;;;;;;3.15;2.90;;;;;;;13.98;27.26;101942.45;1699394;84;21094;-64
2022/04/04 09:17:27;;;;;;;3.60;3.12;;;;;;;13.99;26.87;101947.25;1597005;89;21071;-64
2022/04/04 09:19:54;;;;;;;4.10;3.20;;;;;;;13.96;26.82;101942.92;1650423;87;21064;-64
2022/04/04 09:22:23;;;;;;;3.25;2.95;;;;;;;13.96;26.86;101940.73;1650947;87;21068;-64
2022/04/04 09:24:58;;;;;;;4.80;3.40;;;;;;;13.96;26.87;101940.30;1651036;87;21068;-64
2022/04/04 09:27:29;;;;;;;3.20;2.83;;;;;;;13.94;26.57;101934.67;1650724;87;21516;-65
2022/04/04 09:30:04;;;;;;;4.33;3.12;;;;;;;13.89;26.71;101939.97;1650295;87;21580;-64
2022/04/04 09:32:42;;;;;;;3.17;2.85;;;;;;;13.84;26.73;101937.89;1649738;87;21005;-64
2022/04/04 09:35:14;;;;;;;4.92;3.52;;;;;;;13.80;27.00;101944.06;1661947;86;21126;-64
2022/04/04 09:37:48;;;;;;;3.47;3.17;;;;;;;13.72;27.08;101944.63;1661641;86;20998;-64
2022/04/04 09:40:17;;;;;;;4.75;3.47;;;;;;;13.66;27.28;101934.27;1661959;86;20998;-64
2022/04/04 09:42:58;;;;;;;5.58;3.33;;;;;;;13.61;26.95;101941.31;1662109;85;21042;-64
2022/04/04 09:45:28;;;;;;;3.52;3.20;;;;;;;13.55;27.43;101940.09;1661914;86;21007;-64
2022/04/04 09:48:08;;;;;;;4.67;3.05;;;;;;;13.52;27.60;101944.92;1661647;86;21082;-64
2022/04/04 09:50:47;;;;;;;4.75;2.92;;;;;;;13.48;27.27;101943.67;1657439;86;21038;-64
2022/04/04 09:53:20;;;;;;;4.28;3.58;;;;;;;13.44;27.23;101943.30;1657045;86;21046;-64
2022/04/04 09:55:56;;;;;;;4.17;3.55;;;;;;;13.37;26.99;101940.38;1585274;90;21620;-64
2022/04/04 09:58:29;;;;;;;6.78;3.58;;;;;;;13.29;27.20;101937.84;1486721;96;21083;-64
2022/04/04 10:01:02;;;;;;;4.90;3.50;;;;;;;13.24;27.57;101932.27;1486763;96;21590;-65
2022/04/04 10:03:31;;;;;;;4.30;3.37;;;;;;;13.20;27.69;101927.97;1466152;96;21105;-64
2022/04/04 10:06:06;;;;;;;4.75;3.50;;;;;;;13.20;28.18;101928.84;1486767;96;21108;-65
2022/04/04 10:08:35;;;;;;;4.65;3.50;;;;;;;13.25;28.34;101926.17;1486925;96;21054;-65
2022/04/04 10:11:03;;;;;;;5.10;3.65;;;;;;;13.28;28.31;101936.14;1486721;96;21102;-66
2022/04/04 10:13:31;;;;;;;3.83;3.45;;;;;;;13.31;28.29;101931.31;1503354;95;21694;-65
2022/04/04 10:15:58;;;;;;;3.33;3.02;;;;;;;13.32;28.12;101931.72;1500565;95;21123;-65
2022/04/04 10:18:26;;;;;;;6.72;3.37;;;;;;;13.32;28.16;101930.41;1500732;95;21089;-65
2022/04/04 10:20:53;;;;;;;4.92;3.35;;;;;;;13.36;28.27;101930.35;1501481;95;21145;-65
2022/04/04 10:23:22;;;;;;;3.80;3.40;;;;;;;13.42;27.96;101925.47;1501170;95;21089;-65
2022/04/04 10:25:49;;;;;;;7.50;3.35;;;;;;;13.47;27.50;101931.07;1501265;95;21110;-65
2022/04/04 10:28:32;;;;;;;3.58;3.25;;;;;;;13.49;27.27;101923.19;1500457;95;21098;-65
2022/04/04 10:31:21;;;;;;;3.92;3.12;;;;;;;13.51;27.12;101917.50;1512419;93;21190;-65
2022/04/04 10:33:50;;;;;;;3.80;3.40;;;;;;;13.51;27.10;101921.42;1546727;92;21644;-65
2022/04/04 10:36:22;;;;;;;3.37;2.92;;;;;;;13.51;27.67;101921.42;1546360;92;21099;-66
2022/04/04 10:38:55;;;;;;;5.05;3.75;;;;;;;13.55;28.20;101919.17;1552185;92;21112;-64
2022/04/04 10:41:28;;;;;;;3.55;3.15;;;;;;;13.61;27.77;101916.47;1547571;92;21092;-65
2022/04/04 10:43:55;;;;;;;4.37;3.47;;;;;;;13.66;27.54;101912.04;1547729;92;21091;-65
2022/04/04 10:46:24;;;;;;;3.58;3.27;;;;;;;13.70;27.35;101915.02;1547408;92;21106;-65
2022/04/04 10:49:00;;;;;;;4.03;3.10;;;;;;;13.74;27.65;101908.85;1570935;90;21375;-65
2022/04/04 10:51:35;;;;;;;4.45;3.50;;;;;;;13.79;27.37;101917.47;1557459;92;21106;-64
2022/04/04 10:54:05;;;;;;;3.27;2.98;;;;;;;13.88;27.46;101913.41;1654181;82;21591;-65
2022/04/04 10:56:42;;;;;;;3.35;3.05;;;;;;;13.97;27.22;101908.03;1762596;81;21054;-62
2022/04/04 10:59:24;;;;;;;4.05;3.25;;;;;;;14.07;27.21;101908.28;1751008;81;21594;-63
2022/04/04 11:01:53;;;;;;;3.60;3.27;;;;;;;14.17;26.71;101899.37;1772184;81;21050;-63
2022/04/04 11:04:36;;;;;;;3.55;2.90;;;;;;;14.26;26.55;101891.33;1756149;81;20971;-64
2022/04/04 11:10:08;;;;;;;3.67;3.30;;;;;;;14.48;25.88;101882.22;1669513;84;21059;-63
2022/04/04 11:13:04;;;;;;;3.30;3.00;;;;;;;14.62;26.00;101880.17;1671802;84;21051;-65
2022/04/04 11:15:48;;;;;;;3.95;3.55;;;;;;;14.74;25.92;101883.42;1670756;84;21519;-65
2022/04/04 11:18:15;;;;;;;5.80;3.55;;;;;;;14.74;25.67;101878.17;1662061;84;21223;-65
2022/04/04 11:20:59;;;;;;;5.60;3.55;;;;;;;14.73;25.60;101880.40;1670554;84;21058;-65
2022/04/04 11:23:27;;;;;;;4.95;3.00;;;;;;;14.72;25.19;101879.97;1627796;88;21063;-65
2022/04/04 11:25:54;;;;;;;3.25;2.95;;;;;;;14.69;25.34;101885.69;1623147;88;21063;-64
2022/04/04 11:28:25;;;;;;;2.80;2.60;;;;;;;14.69;25.55;101885.69;1674130;84;21550;-65
2022/04/04 11:30:53;;;;;;;3.45;3.15;;;;;;;14.68;25.35;101874.81;1666771;84;21114;-65
2022/04/04 11:33:25;;;;;;;3.52;3.10;;;;;;;14.68;25.27;101870.87;1678440;84;21030;-65
2022/04/04 11:35:52;;;;;;;4.22;3.02;;;;;;;14.67;24.85;101860.44;1668509;84;21042;-64
2022/04/04 11:38:20;;;;;;;3.10;2.80;;;;;;;14.65;24.91;101868.31;1656952;85;21067;-64
2022/04/04 11:40:55;;;;;;;7.40;3.42;;;;;;;14.61;24.43;101856.17;1674721;84;21011;-65
2022/04/04 11:43:24;;;;;;;5.50;3.58;;;;;;;14.60;24.69;101856.21;1664333;84;21574;-63